sensor_id;sensor_type;location;lat;lon;timestamp;P1;durP1;ratioP1;P2;durP2;ratioP2
59486;SDS011;45298;54.918;73.504;2023-06-10T00:01:00;39.85;;;14.25;;
59486;SDS011;45298;54.918;73.504;2023-06-10T00:03:29;32.17;;;13.52;;
59486;SDS011;45298;54.918;73.504;2023-06-10T00:05:58;26.92;;;13.25;;
59486;SDS011;45298;54.918;73.504;2023-06-10T00:08:27;59.75;;;16.58;;
59486;SDS011;45298;54.918;73.504;2023-06-10T00:10:57;51.35;;;14.90;;
59486;SDS011;45298;54.918;73.504;2023-06-10T00:13:25;60.38;;;16.05;;
59486;SDS011;45298;54.918;73.504;2023-06-10T00:15:54;83.82;;;15.45;;
59486;SDS011;45298;54.918;73.504;2023-06-10T00:18:23;50.80;;;14.77;;
59486;SDS011;45298;54.918;73.504;2023-06-10T00:20:54;61.00;;;15.32;;
59486;SDS011;45298;54.918;73.504;2023-06-10T00:23:23;46.45;;;15.10;;
59486;SDS011;45298;54.918;73.504;2023-06-10T00:25:53;60.60;;;13.93;;
59486;SDS011;45298;54.918;73.504;2023-06-10T00:28:22;58.63;;;13.93;;
59486;SDS011;45298;54.918;73.504;2023-06-10T00:30:51;39.35;;;15.85;;
59486;SDS011;45298;54.918;73.504;2023-06-10T00:33:20;51.00;;;15.98;;
59486;SDS011;45298;54.918;73.504;2023-06-10T00:35:49;40.90;;;15.32;;
59486;SDS011;45298;54.918;73.504;2023-06-10T00:38:18;31.83;;;13.65;;
59486;SDS011;45298;54.918;73.504;2023-06-10T00:40:47;30.25;;;13.50;;
59486;SDS011;45298;54.918;73.504;2023-06-10T00:43:17;19.65;;;9.30;;
59486;SDS011;45298;54.918;73.504;2023-06-10T00:45:46;18.65;;;8.65;;
59486;SDS011;45298;54.918;73.504;2023-06-10T00:48:15;15.95;;;7.65;;
59486;SDS011;45298;54.918;73.504;2023-06-10T00:50:45;14.40;;;7.43;;
59486;SDS011;45298;54.918;73.504;2023-06-10T00:53:15;13.25;;;7.50;;
59486;SDS011;45298;54.918;73.504;2023-06-10T00:55:45;16.63;;;7.30;;
59486;SDS011;45298;54.918;73.504;2023-06-10T00:58:14;24.02;;;7.55;;
59486;SDS011;45298;54.918;73.504;2023-06-10T01:00:43;25.77;;;7.75;;
59486;SDS011;45298;54.918;73.504;2023-06-10T01:03:13;20.77;;;7.88;;
59486;SDS011;45298;54.918;73.504;2023-06-10T01:05:42;18.88;;;7.40;;
59486;SDS011;45298;54.918;73.504;2023-06-10T01:11:12;20.58;;;7.18;;
59486;SDS011;45298;54.918;73.504;2023-06-10T01:13:46;19.98;;;6.55;;
59486;SDS011;45298;54.918;73.504;2023-06-10T01:16:19;18.65;;;6.25;;
59486;SDS011;45298;54.918;73.504;2023-06-10T01:18:48;17.13;;;6.35;;
59486;SDS011;45298;54.918;73.504;2023-06-10T01:21:21;10.38;;;6.45;;
59486;SDS011;45298;54.918;73.504;2023-06-10T01:23:52;20.40;;;6.10;;
59486;SDS011;45298;54.918;73.504;2023-06-10T01:26:26;11.75;;;6.07;;
59486;SDS011;45298;54.918;73.504;2023-06-10T01:29:07;13.98;;;5.57;;
59486;SDS011;45298;54.918;73.504;2023-06-10T01:31:49;10.75;;;5.60;;
59486;SDS011;45298;54.918;73.504;2023-06-10T01:34:23;13.02;;;5.95;;
59486;SDS011;45298;54.918;73.504;2023-06-10T01:36:54;13.15;;;5.82;;
59486;SDS011;45298;54.918;73.504;2023-06-10T01:39:26;11.52;;;5.68;;
59486;SDS011;45298;54.918;73.504;2023-06-10T01:41:56;12.73;;;6.10;;
59486;SDS011;45298;54.918;73.504;2023-06-10T01:44:26;12.95;;;6.38;;
59486;SDS011;45298;54.918;73.504;2023-06-10T01:46:55;11.27;;;6.03;;
59486;SDS011;45298;54.918;73.504;2023-06-10T01:49:26;16.15;;;6.05;;
59486;SDS011;45298;54.918;73.504;2023-06-10T01:51:56;11.32;;;5.90;;
59486;SDS011;45298;54.918;73.504;2023-06-10T01:54:25;15.55;;;7.63;;
59486;SDS011;45298;54.918;73.504;2023-06-10T01:56:54;20.23;;;6.78;;
59486;SDS011;45298;54.918;73.504;2023-06-10T01:59:23;15.95;;;7.38;;
59486;SDS011;45298;54.918;73.504;2023-06-10T02:01:51;20.67;;;6.20;;
59486;SDS011;45298;54.918;73.504;2023-06-10T02:04:20;11.35;;;4.78;;
59486;SDS011;45298;54.918;73.504;2023-06-10T02:06:49;21.00;;;7.80;;
59486;SDS011;45298;54.918;73.504;2023-06-10T02:09:18;9.25;;;5.20;;
59486;SDS011;45298;54.918;73.504;2023-06-10T02:11:49;11.40;;;5.47;;
59486;SDS011;45298;54.918;73.504;2023-06-10T02:14:18;8.27;;;5.22;;
59486;SDS011;45298;54.918;73.504;2023-06-10T02:16:47;12.73;;;7.78;;
59486;SDS011;45298;54.918;73.504;2023-06-10T02:19:16;10.07;;;4.65;;
59486;SDS011;45298;54.918;73.504;2023-06-10T02:21:46;31.98;;;16.00;;
59486;SDS011;45298;54.918;73.504;2023-06-10T02:24:14;10.82;;;4.63;;
59486;SDS011;45298;54.918;73.504;2023-06-10T02:26:43;8.60;;;5.80;;
59486;SDS011;45298;54.918;73.504;2023-06-10T02:29:13;9.25;;;4.93;;
59486;SDS011;45298;54.918;73.504;2023-06-10T02:31:42;10.77;;;4.95;;
59486;SDS011;45298;54.918;73.504;2023-06-10T02:34:11;17.92;;;5.97;;
59486;SDS011;45298;54.918;73.504;2023-06-10T02:36:40;8.93;;;4.90;;
59486;SDS011;45298;54.918;73.504;2023-06-10T02:39:09;9.55;;;5.03;;
59486;SDS011;45298;54.918;73.504;2023-06-10T02:41:40;8.02;;;4.43;;
59486;SDS011;45298;54.918;73.504;2023-06-10T02:44:09;12.50;;;5.18;;
59486;SDS011;45298;54.918;73.504;2023-06-10T02:46:39;10.48;;;4.95;;
59486;SDS011;45298;54.918;73.504;2023-06-10T02:49:09;11.32;;;4.90;;
59486;SDS011;45298;54.918;73.504;2023-06-10T02:51:38;11.27;;;4.97;;
59486;SDS011;45298;54.918;73.504;2023-06-10T02:54:08;14.77;;;5.30;;
59486;SDS011;45298;54.918;73.504;2023-06-10T02:56:37;12.80;;;5.45;;
59486;SDS011;45298;54.918;73.504;2023-06-10T02:59:16;16.08;;;5.65;;
59486;SDS011;45298;54.918;73.504;2023-06-10T03:01:49;15.38;;;5.45;;
59486;SDS011;45298;54.918;73.504;2023-06-10T03:04:19;14.02;;;5.68;;
59486;SDS011;45298;54.918;73.504;2023-06-10T03:06:56;12.98;;;5.43;;
59486;SDS011;45298;54.918;73.504;2023-06-10T03:09:30;9.73;;;5.85;;
59486;SDS011;45298;54.918;73.504;2023-06-10T03:12:01;15.70;;;5.72;;
59486;SDS011;45298;54.918;73.504;2023-06-10T03:14:35;13.32;;;6.20;;
59486;SDS011;45298;54.918;73.504;2023-06-10T03:17:06;32.28;;;7.20;;
59486;SDS011;45298;54.918;73.504;2023-06-10T03:19:39;18.38;;;6.60;;
59486;SDS011;45298;54.918;73.504;2023-06-10T03:22:12;16.80;;;6.43;;
59486;SDS011;45298;54.918;73.504;2023-06-10T03:25:00;15.60;;;6.55;;
59486;SDS011;45298;54.918;73.504;2023-06-10T03:27:30;13.48;;;6.47;;
59486;SDS011;45298;54.918;73.504;2023-06-10T03:30:03;18.33;;;6.38;;
59486;SDS011;45298;54.918;73.504;2023-06-10T03:32:32;13.45;;;6.30;;
59486;SDS011;45298;54.918;73.504;2023-06-10T03:35:02;17.40;;;6.25;;
59486;SDS011;45298;54.918;73.504;2023-06-10T03:37:32;11.95;;;6.00;;
59486;SDS011;45298;54.918;73.504;2023-06-10T03:40:01;15.55;;;6.13;;
59486;SDS011;45298;54.918;73.504;2023-06-10T03:42:33;14.68;;;5.85;;
59486;SDS011;45298;54.918;73.504;2023-06-10T03:45:03;14.50;;;6.63;;
59486;SDS011;45298;54.918;73.504;2023-06-10T03:47:34;17.38;;;10.90;;
59486;SDS011;45298;54.918;73.504;2023-06-10T03:50:08;25.70;;;7.65;;
59486;SDS011;45298;54.918;73.504;2023-06-10T03:52:40;14.50;;;6.93;;
59486;SDS011;45298;54.918;73.504;2023-06-10T03:55:09;15.25;;;6.22;;
59486;SDS011;45298;54.918;73.504;2023-06-10T03:57:43;14.73;;;5.97;;
59486;SDS011;45298;54.918;73.504;2023-06-10T04:00:12;16.40;;;5.95;;
59486;SDS011;45298;54.918;73.504;2023-06-10T04:02:43;18.42;;;6.40;;
59486;SDS011;45298;54.918;73.504;2023-06-10T04:05:31;18.85;;;5.75;;
59486;SDS011;45298;54.918;73.504;2023-06-10T04:08:00;13.50;;;5.80;;
59486;SDS011;45298;54.918;73.504;2023-06-10T04:10:29;12.13;;;5.85;;
59486;SDS011;45298;54.918;73.504;2023-06-10T04:13:00;12.63;;;5.93;;
59486;SDS011;45298;54.918;73.504;2023-06-10T04:15:35;11.55;;;5.50;;
59486;SDS011;45298;54.918;73.504;2023-06-10T04:18:08;13.93;;;5.30;;
59486;SDS011;45298;54.918;73.504;2023-06-10T04:20:37;13.68;;;6.20;;
59486;SDS011;45298;54.918;73.504;2023-06-10T04:23:07;9.00;;;5.53;;
59486;SDS011;45298;54.918;73.504;2023-06-10T04:25:38;15.35;;;5.70;;
59486;SDS011;45298;54.918;73.504;2023-06-10T04:28:07;14.70;;;6.30;;
59486;SDS011;45298;54.918;73.504;2023-06-10T04:30:37;75.53;;;9.77;;
59486;SDS011;45298;54.918;73.504;2023-06-10T04:33:07;26.50;;;6.25;;
59486;SDS011;45298;54.918;73.504;2023-06-10T04:35:39;11.93;;;5.38;;
59486;SDS011;45298;54.918;73.504;2023-06-10T04:38:11;24.38;;;6.20;;
59486;SDS011;45298;54.918;73.504;2023-06-10T04:40:41;22.10;;;6.32;;
59486;SDS011;45298;54.918;73.504;2023-06-10T04:43:13;30.13;;;6.38;;
59486;SDS011;45298;54.918;73.504;2023-06-10T04:45:44;28.25;;;6.05;;
59486;SDS011;45298;54.918;73.504;2023-06-10T04:48:14;17.25;;;5.38;;
59486;SDS011;45298;54.918;73.504;2023-06-10T04:50:43;16.02;;;5.43;;
59486;SDS011;45298;54.918;73.504;2023-06-10T04:53:13;27.30;;;6.47;;
59486;SDS011;45298;54.918;73.504;2023-06-10T04:55:45;10.07;;;5.32;;
59486;SDS011;45298;54.918;73.504;2023-06-10T04:58:14;18.40;;;5.65;;
59486;SDS011;45298;54.918;73.504;2023-06-10T05:00:44;13.52;;;5.22;;
59486;SDS011;45298;54.918;73.504;2023-06-10T05:03:13;21.15;;;5.97;;
59486;SDS011;45298;54.918;73.504;2023-06-10T05:05:42;16.05;;;5.55;;
59486;SDS011;45298;54.918;73.504;2023-06-10T05:08:13;14.35;;;5.38;;
59486;SDS011;45298;54.918;73.504;2023-06-10T05:10:42;14.27;;;6.00;;
59486;SDS011;45298;54.918;73.504;2023-06-10T05:13:11;19.58;;;6.88;;
59486;SDS011;45298;54.918;73.504;2023-06-10T05:15:41;21.63;;;6.35;;
59486;SDS011;45298;54.918;73.504;2023-06-10T05:18:13;16.70;;;6.40;;
59486;SDS011;45298;54.918;73.504;2023-06-10T05:20:42;18.52;;;6.70;;
59486;SDS011;45298;54.918;73.504;2023-06-10T05:23:11;12.45;;;6.28;;
59486;SDS011;45298;54.918;73.504;2023-06-10T05:25:40;25.48;;;6.47;;
59486;SDS011;45298;54.918;73.504;2023-06-10T05:28:10;20.02;;;5.97;;
59486;SDS011;45298;54.918;73.504;2023-06-10T05:30:42;15.13;;;5.25;;
59486;SDS011;45298;54.918;73.504;2023-06-10T05:33:11;11.90;;;5.30;;
59486;SDS011;45298;54.918;73.504;2023-06-10T05:35:40;28.90;;;7.65;;
59486;SDS011;45298;54.918;73.504;2023-06-10T05:38:09;13.75;;;5.43;;
59486;SDS011;45298;54.918;73.504;2023-06-10T05:40:37;31.45;;;5.82;;
59486;SDS011;45298;54.918;73.504;2023-06-10T05:43:06;17.63;;;5.63;;
59486;SDS011;45298;54.918;73.504;2023-06-10T05:45:37;11.20;;;5.15;;
59486;SDS011;45298;54.918;73.504;2023-06-10T05:48:11;13.50;;;5.20;;
59486;SDS011;45298;54.918;73.504;2023-06-10T05:50:40;15.10;;;5.53;;
59486;SDS011;45298;54.918;73.504;2023-06-10T05:53:10;11.13;;;5.13;;
59486;SDS011;45298;54.918;73.504;2023-06-10T05:55:45;10.77;;;5.30;;
59486;SDS011;45298;54.918;73.504;2023-06-10T05:58:14;15.35;;;5.03;;
59486;SDS011;45298;54.918;73.504;2023-06-10T06:00:43;11.05;;;4.63;;
59486;SDS011;45298;54.918;73.504;2023-06-10T06:03:12;11.93;;;4.60;;
59486;SDS011;45298;54.918;73.504;2023-06-10T06:05:41;13.80;;;4.43;;
59486;SDS011;45298;54.918;73.504;2023-06-10T06:08:10;11.23;;;4.57;;
59486;SDS011;45298;54.918;73.504;2023-06-10T06:10:39;9.70;;;4.57;;
59486;SDS011;45298;54.918;73.504;2023-06-10T06:13:08;9.63;;;4.57;;
59486;SDS011;45298;54.918;73.504;2023-06-10T06:15:36;10.90;;;4.82;;
59486;SDS011;45298;54.918;73.504;2023-06-10T06:18:05;8.98;;;4.07;;
59486;SDS011;45298;54.918;73.504;2023-06-10T06:20:34;9.27;;;5.35;;
59486;SDS011;45298;54.918;73.504;2023-06-10T06:23:03;10.70;;;5.95;;
59486;SDS011;45298;54.918;73.504;2023-06-10T06:25:32;29.55;;;4.68;;
59486;SDS011;45298;54.918;73.504;2023-06-10T06:28:01;13.30;;;5.00;;
59486;SDS011;45298;54.918;73.504;2023-06-10T06:30:30;21.33;;;10.73;;
59486;SDS011;45298;54.918;73.504;2023-06-10T06:32:59;11.32;;;5.32;;
59486;SDS011;45298;54.918;73.504;2023-06-10T06:35:32;12.93;;;5.35;;
59486;SDS011;45298;54.918;73.504;2023-06-10T06:38:02;7.18;;;3.80;;
59486;SDS011;45298;54.918;73.504;2023-06-10T06:40:32;10.45;;;3.75;;
59486;SDS011;45298;54.918;73.504;2023-06-10T06:43:01;6.95;;;3.80;;
59486;SDS011;45298;54.918;73.504;2023-06-10T06:46:02;22.10;;;9.85;;
59486;SDS011;45298;54.918;73.504;2023-06-10T06:48:33;8.88;;;4.45;;
59486;SDS011;45298;54.918;73.504;2023-06-10T06:51:02;7.05;;;4.20;;
59486;SDS011;45298;54.918;73.504;2023-06-10T06:53:31;17.75;;;9.52;;
59486;SDS011;45298;54.918;73.504;2023-06-10T06:56:01;7.15;;;4.10;;
59486;SDS011;45298;54.918;73.504;2023-06-10T06:58:31;8.25;;;4.70;;
59486;SDS011;45298;54.918;73.504;2023-06-10T07:01:00;11.05;;;4.70;;
59486;SDS011;45298;54.918;73.504;2023-06-10T07:03:29;13.05;;;4.50;;
59486;SDS011;45298;54.918;73.504;2023-06-10T07:05:58;10.55;;;5.70;;
59486;SDS011;45298;54.918;73.504;2023-06-10T07:08:27;14.05;;;4.75;;
59486;SDS011;45298;54.918;73.504;2023-06-10T07:10:57;22.05;;;9.07;;
59486;SDS011;45298;54.918;73.504;2023-06-10T07:13:26;13.70;;;5.03;;
59486;SDS011;45298;54.918;73.504;2023-06-10T07:15:55;29.98;;;13.23;;
59486;SDS011;45298;54.918;73.504;2023-06-10T07:18:24;11.45;;;4.60;;
59486;SDS011;45298;54.918;73.504;2023-06-10T07:20:53;15.23;;;5.50;;
59486;SDS011;45298;54.918;73.504;2023-06-10T07:23:22;9.90;;;4.90;;
59486;SDS011;45298;54.918;73.504;2023-06-10T07:25:51;9.15;;;3.70;;
59486;SDS011;45298;54.918;73.504;2023-06-10T07:28:21;12.77;;;4.60;;
59486;SDS011;45298;54.918;73.504;2023-06-10T07:30:50;9.32;;;3.53;;
59486;SDS011;45298;54.918;73.504;2023-06-10T07:33:19;10.07;;;4.88;;
59486;SDS011;45298;54.918;73.504;2023-06-10T07:35:47;22.33;;;5.00;;
59486;SDS011;45298;54.918;73.504;2023-06-10T07:38:17;17.73;;;5.15;;
59486;SDS011;45298;54.918;73.504;2023-06-10T07:40:59;7.78;;;5.55;;
59486;SDS011;45298;54.918;73.504;2023-06-10T07:43:34;10.75;;;3.67;;
59486;SDS011;45298;54.918;73.504;2023-06-10T07:46:08;11.80;;;7.80;;
59486;SDS011;45298;54.918;73.504;2023-06-10T07:48:38;8.45;;;3.30;;
59486;SDS011;45298;54.918;73.504;2023-06-10T07:51:07;6.50;;;3.22;;
59486;SDS011;45298;54.918;73.504;2023-06-10T07:53:35;8.00;;;2.95;;
59486;SDS011;45298;54.918;73.504;2023-06-10T07:56:04;7.88;;;3.30;;
59486;SDS011;45298;54.918;73.504;2023-06-10T07:58:33;10.73;;;3.05;;
59486;SDS011;45298;54.918;73.504;2023-06-10T08:01:02;6.78;;;3.30;;
59486;SDS011;45298;54.918;73.504;2023-06-10T08:03:31;10.32;;;3.22;;
59486;SDS011;45298;54.918;73.504;2023-06-10T08:06:03;13.68;;;3.58;;
59486;SDS011;45298;54.918;73.504;2023-06-10T08:08:33;8.32;;;3.53;;
59486;SDS011;45298;54.918;73.504;2023-06-10T08:11:03;7.78;;;3.55;;
59486;SDS011;45298;54.918;73.504;2023-06-10T08:13:31;22.13;;;4.60;;
59486;SDS011;45298;54.918;73.504;2023-06-10T08:16:00;7.82;;;3.22;;
59486;SDS011;45298;54.918;73.504;2023-06-10T08:18:29;5.22;;;2.83;;
59486;SDS011;45298;54.918;73.504;2023-06-10T08:21:01;6.18;;;3.00;;
59486;SDS011;45298;54.918;73.504;2023-06-10T08:23:30;4.55;;;3.00;;
59486;SDS011;45298;54.918;73.504;2023-06-10T08:25:59;19.95;;;11.25;;
59486;SDS011;45298;54.918;73.504;2023-06-10T08:28:28;6.13;;;3.00;;
59486;SDS011;45298;54.918;73.504;2023-06-10T08:30:58;6.03;;;3.30;;
59486;SDS011;45298;54.918;73.504;2023-06-10T08:33:26;6.25;;;3.13;;
59486;SDS011;45298;54.918;73.504;2023-06-10T08:35:55;9.48;;;3.17;;
59486;SDS011;45298;54.918;73.504;2023-06-10T08:38:26;11.88;;;3.72;;
59486;SDS011;45298;54.918;73.504;2023-06-10T08:40:56;9.27;;;3.30;;
59486;SDS011;45298;54.918;73.504;2023-06-10T08:43:37;14.88;;;6.32;;
59486;SDS011;45298;54.918;73.504;2023-06-10T08:46:08;6.63;;;3.00;;
59486;SDS011;45298;54.918;73.504;2023-06-10T08:48:43;6.63;;;3.70;;
59486;SDS011;45298;54.918;73.504;2023-06-10T08:51:14;11.38;;;4.03;;
59486;SDS011;45298;54.918;73.504;2023-06-10T08:53:53;22.17;;;3.38;;
59486;SDS011;45298;54.918;73.504;2023-06-10T08:59:08;10.52;;;3.25;;
59486;SDS011;45298;54.918;73.504;2023-06-10T09:01:38;10.90;;;3.90;;
59486;SDS011;45298;54.918;73.504;2023-06-10T09:04:07;27.48;;;6.75;;
59486;SDS011;45298;54.918;73.504;2023-06-10T09:06:40;12.70;;;3.38;;
59486;SDS011;45298;54.918;73.504;2023-06-10T09:09:09;34.45;;;11.90;;
59486;SDS011;45298;54.918;73.504;2023-06-10T09:11:38;33.78;;;15.90;;
59486;SDS011;45298;54.918;73.504;2023-06-10T09:14:08;10.88;;;5.07;;
59486;SDS011;45298;54.918;73.504;2023-06-10T09:16:37;27.92;;;15.18;;
59486;SDS011;45298;54.918;73.504;2023-06-10T09:19:07;10.13;;;5.90;;
59486;SDS011;45298;54.918;73.504;2023-06-10T09:21:37;10.60;;;6.18;;
59486;SDS011;45298;54.918;73.504;2023-06-10T09:24:06;16.50;;;9.13;;
59486;SDS011;45298;54.918;73.504;2023-06-10T09:26:36;30.83;;;18.60;;
59486;SDS011;45298;54.918;73.504;2023-06-10T09:29:06;20.23;;;11.80;;
59486;SDS011;45298;54.918;73.504;2023-06-10T09:31:39;19.48;;;11.27;;
59486;SDS011;45298;54.918;73.504;2023-06-10T09:34:09;15.02;;;10.43;;
59486;SDS011;45298;54.918;73.504;2023-06-10T09:36:40;16.52;;;7.53;;
59486;SDS011;45298;54.918;73.504;2023-06-10T09:39:16;18.70;;;7.18;;
59486;SDS011;45298;54.918;73.504;2023-06-10T09:41:46;23.50;;;9.63;;
59486;SDS011;45298;54.918;73.504;2023-06-10T09:44:16;20.77;;;9.30;;
59486;SDS011;45298;54.918;73.504;2023-06-10T09:46:47;23.15;;;6.60;;
59486;SDS011;45298;54.918;73.504;2023-06-10T09:49:18;29.20;;;6.72;;
59486;SDS011;45298;54.918;73.504;2023-06-10T09:51:51;45.15;;;11.25;;
59486;SDS011;45298;54.918;73.504;2023-06-10T09:54:21;19.03;;;5.57;;
59486;SDS011;45298;54.918;73.504;2023-06-10T09:56:51;19.65;;;6.13;;
59486;SDS011;45298;54.918;73.504;2023-06-10T09:59:30;26.65;;;12.45;;
59486;SDS011;45298;54.918;73.504;2023-06-10T10:02:00;14.68;;;6.32;;
59486;SDS011;45298;54.918;73.504;2023-06-10T10:04:35;10.13;;;5.93;;
59486;SDS011;45298;54.918;73.504;2023-06-10T10:07:05;19.13;;;9.98;;
59486;SDS011;45298;54.918;73.504;2023-06-10T10:09:36;18.83;;;8.25;;
59486;SDS011;45298;54.918;73.504;2023-06-10T10:12:10;13.38;;;8.07;;
59486;SDS011;45298;54.918;73.504;2023-06-10T10:14:46;11.52;;;8.02;;
59486;SDS011;45298;54.918;73.504;2023-06-10T10:17:15;10.43;;;6.22;;
59486;SDS011;45298;54.918;73.504;2023-06-10T10:19:49;13.35;;;8.40;;
59486;SDS011;45298;54.918;73.504;2023-06-10T10:22:29;10.80;;;6.75;;
59486;SDS011;45298;54.918;73.504;2023-06-10T10:25:10;17.17;;;11.85;;
59486;SDS011;45298;54.918;73.504;2023-06-10T10:27:49;7.35;;;4.75;;
59486;SDS011;45298;54.918;73.504;2023-06-10T10:30:21;11.95;;;6.63;;
59486;SDS011;45298;54.918;73.504;2023-06-10T10:32:53;10.38;;;4.75;;
59486;SDS011;45298;54.918;73.504;2023-06-10T10:35:36;22.63;;;13.75;;
59486;SDS011;45298;54.918;73.504;2023-06-10T10:38:06;8.65;;;5.57;;
59486;SDS011;45298;54.918;73.504;2023-06-10T10:40:35;11.95;;;7.93;;
59486;SDS011;45298;54.918;73.504;2023-06-10T10:43:05;8.32;;;5.32;;
59486;SDS011;45298;54.918;73.504;2023-06-10T10:45:35;13.20;;;8.73;;
59486;SDS011;45298;54.918;73.504;2023-06-10T10:48:10;9.70;;;7.00;;
59486;SDS011;45298;54.918;73.504;2023-06-10T10:50:39;17.27;;;11.73;;
59486;SDS011;45298;54.918;73.504;2023-06-10T10:53:08;7.93;;;5.15;;
59486;SDS011;45298;54.918;73.504;2023-06-10T10:55:37;12.00;;;8.50;;
59486;SDS011;45298;54.918;73.504;2023-06-10T10:58:06;10.23;;;7.07;;
59486;SDS011;45298;54.918;73.504;2023-06-10T11:00:45;9.60;;;5.95;;
59486;SDS011;45298;54.918;73.504;2023-06-10T11:03:15;13.73;;;7.97;;
59486;SDS011;45298;54.918;73.504;2023-06-10T11:05:46;20.20;;;13.30;;
59486;SDS011;45298;54.918;73.504;2023-06-10T11:11:00;8.40;;;5.20;;
59486;SDS011;45298;54.918;73.504;2023-06-10T11:14:04;13.80;;;9.68;;
59486;SDS011;45298;54.918;73.504;2023-06-10T11:16:38;6.32;;;4.72;;
59486;SDS011;45298;54.918;73.504;2023-06-10T11:19:09;7.72;;;4.00;;
59486;SDS011;45298;54.918;73.504;2023-06-10T11:22:00;7.47;;;4.88;;
59486;SDS011;45298;54.918;73.504;2023-06-10T11:24:32;15.50;;;9.77;;
59486;SDS011;45298;54.918;73.504;2023-06-10T11:29:57;11.98;;;6.35;;
59486;SDS011;45298;54.918;73.504;2023-06-10T11:32:30;8.95;;;6.28;;
59486;SDS011;45298;54.918;73.504;2023-06-10T11:35:04;9.02;;;6.63;;
59486;SDS011;45298;54.918;73.504;2023-06-10T11:37:34;19.10;;;10.43;;
59486;SDS011;45298;54.918;73.504;2023-06-10T11:40:03;11.40;;;6.30;;
59486;SDS011;45298;54.918;73.504;2023-06-10T11:42:38;11.15;;;6.20;;
59486;SDS011;45298;54.918;73.504;2023-06-10T11:45:14;9.18;;;5.40;;
59486;SDS011;45298;54.918;73.504;2023-06-10T11:48:01;9.13;;;5.75;;
59486;SDS011;45298;54.918;73.504;2023-06-10T11:50:33;11.20;;;7.07;;
59486;SDS011;45298;54.918;73.504;2023-06-10T11:53:02;19.95;;;8.38;;
59486;SDS011;45298;54.918;73.504;2023-06-10T11:55:47;33.80;;;19.70;;
59486;SDS011;45298;54.918;73.504;2023-06-10T11:58:19;15.10;;;9.68;;
59486;SDS011;45298;54.918;73.504;2023-06-10T12:00:49;13.82;;;8.77;;
59486;SDS011;45298;54.918;73.504;2023-06-10T12:03:21;12.25;;;7.82;;
59486;SDS011;45298;54.918;73.504;2023-06-10T12:08:25;13.57;;;8.48;;
59486;SDS011;45298;54.918;73.504;2023-06-10T12:10:56;9.13;;;5.75;;
59486;SDS011;45298;54.918;73.504;2023-06-10T12:13:26;9.80;;;5.78;;
59486;SDS011;45298;54.918;73.504;2023-06-10T12:16:05;20.85;;;10.07;;
59486;SDS011;45298;54.918;73.504;2023-06-10T12:18:35;10.48;;;6.43;;
59486;SDS011;45298;54.918;73.504;2023-06-10T12:21:15;12.68;;;7.07;;
59486;SDS011;45298;54.918;73.504;2023-06-10T12:24:07;12.77;;;8.18;;
59486;SDS011;45298;54.918;73.504;2023-06-10T12:26:42;9.40;;;6.53;;
59486;SDS011;45298;54.918;73.504;2023-06-10T12:29:18;9.32;;;6.03;;
59486;SDS011;45298;54.918;73.504;2023-06-10T12:31:53;16.20;;;8.25;;
59486;SDS011;45298;54.918;73.504;2023-06-10T12:34:29;12.18;;;6.90;;
59486;SDS011;45298;54.918;73.504;2023-06-10T12:37:00;13.13;;;5.20;;
59486;SDS011;45298;54.918;73.504;2023-06-10T12:39:31;7.88;;;4.10;;
59486;SDS011;45298;54.918;73.504;2023-06-10T12:42:03;6.93;;;4.25;;
59486;SDS011;45298;54.918;73.504;2023-06-10T12:44:33;8.50;;;3.70;;
59486;SDS011;45298;54.918;73.504;2023-06-10T12:47:08;10.77;;;3.50;;
59486;SDS011;45298;54.918;73.504;2023-06-10T12:49:38;7.72;;;4.13;;
59486;SDS011;45298;54.918;73.504;2023-06-10T12:52:07;10.93;;;4.20;;
59486;SDS011;45298;54.918;73.504;2023-06-10T12:54:36;8.65;;;4.10;;
59486;SDS011;45298;54.918;73.504;2023-06-10T12:57:05;11.80;;;3.50;;
59486;SDS011;45298;54.918;73.504;2023-06-10T12:59:34;8.80;;;3.70;;
59486;SDS011;45298;54.918;73.504;2023-06-10T13:02:03;9.65;;;3.20;;
59486;SDS011;45298;54.918;73.504;2023-06-10T13:04:32;8.93;;;3.72;;
59486;SDS011;45298;54.918;73.504;2023-06-10T13:07:01;8.07;;;3.70;;
59486;SDS011;45298;54.918;73.504;2023-06-10T13:09:30;8.35;;;3.85;;
59486;SDS011;45298;54.918;73.504;2023-06-10T13:11:59;11.25;;;4.15;;
59486;SDS011;45298;54.918;73.504;2023-06-10T13:14:28;8.57;;;4.28;;
59486;SDS011;45298;54.918;73.504;2023-06-10T13:16:57;8.75;;;4.30;;
59486;SDS011;45298;54.918;73.504;2023-06-10T13:19:26;6.10;;;3.67;;
59486;SDS011;45298;54.918;73.504;2023-06-10T13:21:55;8.23;;;4.00;;
59486;SDS011;45298;54.918;73.504;2023-06-10T13:24:23;8.95;;;3.97;;
59486;SDS011;45298;54.918;73.504;2023-06-10T13:26:53;11.00;;;4.03;;
59486;SDS011;45298;54.918;73.504;2023-06-10T13:29:23;8.65;;;3.88;;
59486;SDS011;45298;54.918;73.504;2023-06-10T13:31:52;5.88;;;3.90;;
59486;SDS011;45298;54.918;73.504;2023-06-10T13:34:21;7.75;;;3.83;;
59486;SDS011;45298;54.918;73.504;2023-06-10T13:36:50;6.38;;;3.83;;
59486;SDS011;45298;54.918;73.504;2023-06-10T13:39:19;7.90;;;4.03;;
59486;SDS011;45298;54.918;73.504;2023-06-10T13:41:48;6.78;;;3.95;;
59486;SDS011;45298;54.918;73.504;2023-06-10T13:44:17;6.32;;;3.92;;
59486;SDS011;45298;54.918;73.504;2023-06-10T13:46:46;6.88;;;3.67;;
59486;SDS011;45298;54.918;73.504;2023-06-10T13:49:16;7.07;;;4.10;;
59486;SDS011;45298;54.918;73.504;2023-06-10T13:51:48;7.20;;;3.80;;
59486;SDS011;45298;54.918;73.504;2023-06-10T13:54:17;6.63;;;3.70;;
59486;SDS011;45298;54.918;73.504;2023-06-10T13:56:46;6.90;;;3.65;;
59486;SDS011;45298;54.918;73.504;2023-06-10T13:59:15;6.70;;;3.97;;
59486;SDS011;45298;54.918;73.504;2023-06-10T14:01:44;5.15;;;3.55;;
59486;SDS011;45298;54.918;73.504;2023-06-10T14:04:13;7.38;;;3.80;;
59486;SDS011;45298;54.918;73.504;2023-06-10T14:06:42;6.47;;;4.18;;
59486;SDS011;45298;54.918;73.504;2023-06-10T14:09:15;9.70;;;4.22;;
59486;SDS011;45298;54.918;73.504;2023-06-10T14:11:44;6.40;;;3.90;;
59486;SDS011;45298;54.918;73.504;2023-06-10T14:14:13;7.82;;;4.20;;
59486;SDS011;45298;54.918;73.504;2023-06-10T14:16:43;6.95;;;4.20;;
59486;SDS011;45298;54.918;73.504;2023-06-10T14:19:12;9.10;;;4.60;;
59486;SDS011;45298;54.918;73.504;2023-06-10T14:21:41;9.30;;;4.68;;
59486;SDS011;45298;54.918;73.504;2023-06-10T14:24:10;10.52;;;4.65;;
59486;SDS011;45298;54.918;73.504;2023-06-10T14:26:39;7.03;;;4.13;;
59486;SDS011;45298;54.918;73.504;2023-06-10T14:29:08;7.32;;;4.47;;
59486;SDS011;45298;54.918;73.504;2023-06-10T14:31:37;6.70;;;4.25;;
59486;SDS011;45298;54.918;73.504;2023-06-10T14:34:06;7.25;;;3.85;;
59486;SDS011;45298;54.918;73.504;2023-06-10T14:36:36;5.50;;;3.65;;
59486;SDS011;45298;54.918;73.504;2023-06-10T14:39:05;10.43;;;4.03;;
59486;SDS011;45298;54.918;73.504;2023-06-10T14:41:34;6.72;;;4.20;;
59486;SDS011;45298;54.918;73.504;2023-06-10T14:44:03;8.35;;;4.13;;
59486;SDS011;45298;54.918;73.504;2023-06-10T14:46:32;8.68;;;4.10;;
59486;SDS011;45298;54.918;73.504;2023-06-10T14:49:01;7.25;;;4.68;;
59486;SDS011;45298;54.918;73.504;2023-06-10T14:51:30;7.32;;;4.43;;
59486;SDS011;45298;54.918;73.504;2023-06-10T14:54:03;6.28;;;3.92;;
59486;SDS011;45298;54.918;73.504;2023-06-10T14:56:31;7.97;;;4.18;;
59486;SDS011;45298;54.918;73.504;2023-06-10T14:59:00;8.88;;;4.65;;